sensor_id;sensor_type;location;lat;lon;timestamp;temperature;humidity
54680;DHT22;40578;53.178;5.846;2023-04-25T00:02:18;6.30;99.90
54680;DHT22;40578;53.178;5.846;2023-04-25T00:04:45;6.20;99.90
54680;DHT22;40578;53.178;5.846;2023-04-25T00:07:10;6.20;99.90
54680;DHT22;40578;53.178;5.846;2023-04-25T00:09:36;6.20;99.90
54680;DHT22;40578;53.178;5.846;2023-04-25T00:12:02;6.20;99.90
54680;DHT22;40578;53.178;5.846;2023-04-25T00:14:29;6.20;99.90
54680;DHT22;40578;53.178;5.846;2023-04-25T00:16:55;6.20;99.90
54680;DHT22;40578;53.178;5.846;2023-04-25T00:19:21;6.20;99.90
54680;DHT22;40578;53.178;5.846;2023-04-25T00:21:47;6.20;99.90
54680;DHT22;40578;53.178;5.846;2023-04-25T00:24:13;6.20;99.90
54680;DHT22;40578;53.178;5.846;2023-04-25T00:26:39;6.20;99.90
54680;DHT22;40578;53.178;5.846;2023-04-25T00:29:04;6.20;99.90
54680;DHT22;40578;53.178;5.846;2023-04-25T00:31:30;6.20;99.90
54680;DHT22;40578;53.178;5.846;2023-04-25T00:33:56;6.20;99.90
54680;DHT22;40578;53.178;5.846;2023-04-25T00:36:22;6.20;99.90
54680;DHT22;40578;53.178;5.846;2023-04-25T00:38:48;6.30;99.90
54680;DHT22;40578;53.178;5.846;2023-04-25T00:41:13;6.20;99.90
54680;DHT22;40578;53.178;5.846;2023-04-25T00:43:40;6.20;99.90
54680;DHT22;40578;53.178;5.846;2023-04-25T00:46:06;6.20;99.90
54680;DHT22;40578;53.178;5.846;2023-04-25T00:48:31;6.20;99.90
54680;DHT22;40578;53.178;5.846;2023-04-25T00:50:58;6.20;99.90
54680;DHT22;40578;53.178;5.846;2023-04-25T00:53:25;6.20;99.90
54680;DHT22;40578;53.178;5.846;2023-04-25T00:55:52;6.20;99.90
54680;DHT22;40578;53.178;5.846;2023-04-25T00:58:19;6.20;99.90
54680;DHT22;40578;53.178;5.846;2023-04-25T01:00:45;6.20;99.90
54680;DHT22;40578;53.178;5.846;2023-04-25T01:03:13;6.20;99.90
54680;DHT22;40578;53.178;5.846;2023-04-25T01:05:43;6.20;99.90
54680;DHT22;40578;53.178;5.846;2023-04-25T01:08:09;6.20;99.90
54680;DHT22;40578;53.178;5.846;2023-04-25T01:10:36;6.60;99.90
54680;DHT22;40578;53.178;5.846;2023-04-25T01:13:02;6.40;99.90
54680;DHT22;40578;53.178;5.846;2023-04-25T01:15:27;6.20;99.90
54680;DHT22;40578;53.178;5.846;2023-04-25T01:17:53;6.20;99.90
54680;DHT22;40578;53.178;5.846;2023-04-25T01:20:24;6.20;99.90
54680;DHT22;40578;53.178;5.846;2023-04-25T01:22:53;6.20;99.90
54680;DHT22;40578;53.178;5.846;2023-04-25T01:25:20;6.20;99.90
54680;DHT22;40578;53.178;5.846;2023-04-25T01:27:46;6.10;99.90
54680;DHT22;40578;53.178;5.846;2023-04-25T01:30:13;6.00;99.90
54680;DHT22;40578;53.178;5.846;2023-04-25T01:32:40;5.90;99.90
54680;DHT22;40578;53.178;5.846;2023-04-25T01:35:06;5.80;99.90
54680;DHT22;40578;53.178;5.846;2023-04-25T01:37:41;5.70;99.90
54680;DHT22;40578;53.178;5.846;2023-04-25T01:40:08;5.70;99.90
54680;DHT22;40578;53.178;5.846;2023-04-25T01:42:36;5.60;99.90
54680;DHT22;40578;53.178;5.846;2023-04-25T01:45:02;6.10;99.90
54680;DHT22;40578;53.178;5.846;2023-04-25T01:47:28;5.60;99.90
54680;DHT22;40578;53.178;5.846;2023-04-25T01:49:54;5.00;99.90
54680;DHT22;40578;53.178;5.846;2023-04-25T01:52:20;5.60;99.90
54680;DHT22;40578;53.178;5.846;2023-04-25T01:54:46;5.60;99.90
54680;DHT22;40578;53.178;5.846;2023-04-25T01:57:12;5.60;99.90
54680;DHT22;40578;53.178;5.846;2023-04-25T01:59:38;5.60;99.90
54680;DHT22;40578;53.178;5.846;2023-04-25T02:02:03;5.60;99.90
54680;DHT22;40578;53.178;5.846;2023-04-25T02:04:30;5.70;99.90
54680;DHT22;40578;53.178;5.846;2023-04-25T02:06:55;5.60;99.90
54680;DHT22;40578;53.178;5.846;2023-04-25T02:09:21;5.60;99.90
54680;DHT22;40578;53.178;5.846;2023-04-25T02:11:47;5.60;99.90
54680;DHT22;40578;53.178;5.846;2023-04-25T02:14:13;5.70;99.90
54680;DHT22;40578;53.178;5.846;2023-04-25T02:16:38;5.60;99.90
54680;DHT22;40578;53.178;5.846;2023-04-25T02:19:05;5.60;99.90
54680;DHT22;40578;53.178;5.846;2023-04-25T02:21:31;5.60;99.90
54680;DHT22;40578;53.178;5.846;2023-04-25T02:23:57;5.60;99.90
54680;DHT22;40578;53.178;5.846;2023-04-25T02:26:23;5.60;99.90
54680;DHT22;40578;53.178;5.846;2023-04-25T02:28:50;5.60;99.90
54680;DHT22;40578;53.178;5.846;2023-04-25T02:31:15;5.50;99.90
54680;DHT22;40578;53.178;5.846;2023-04-25T02:33:42;5.50;99.90
54680;DHT22;40578;53.178;5.846;2023-04-25T02:36:07;5.50;99.90
54680;DHT22;40578;53.178;5.846;2023-04-25T02:38:33;5.40;99.90
54680;DHT22;40578;53.178;5.846;2023-04-25T02:40:59;5.30;99.90
54680;DHT22;40578;53.178;5.846;2023-04-25T02:43:25;5.20;99.90
54680;DHT22;40578;53.178;5.846;2023-04-25T02:45:50;5.10;99.90
54680;DHT22;40578;53.178;5.846;2023-04-25T02:48:16;5.10;99.90
54680;DHT22;40578;53.178;5.846;2023-04-25T02:50:45;5.10;99.90
54680;DHT22;40578;53.178;5.846;2023-04-25T02:53:10;5.20;99.90
54680;DHT22;40578;53.178;5.846;2023-04-25T02:55:36;5.20;99.90
54680;DHT22;40578;53.178;5.846;2023-04-25T02:58:02;5.20;99.90
54680;DHT22;40578;53.178;5.846;2023-04-25T03:00:27;5.20;99.90
54680;DHT22;40578;53.178;5.846;2023-04-25T03:02:53;5.30;99.90
54680;DHT22;40578;53.178;5.846;2023-04-25T03:05:19;5.30;99.90
54680;DHT22;40578;53.178;5.846;2023-04-25T03:07:44;5.30;99.90
54680;DHT22;40578;53.178;5.846;2023-04-25T03:10:11;5.30;99.90
54680;DHT22;40578;53.178;5.846;2023-04-25T03:12:37;5.40;99.90
54680;DHT22;40578;53.178;5.846;2023-04-25T03:15:03;5.40;99.90
54680;DHT22;40578;53.178;5.846;2023-04-25T03:17:29;5.50;99.90
54680;DHT22;40578;53.178;5.846;2023-04-25T03:19:55;5.50;99.90
54680;DHT22;40578;53.178;5.846;2023-04-25T03:22:21;5.50;99.90
54680;DHT22;40578;53.178;5.846;2023-04-25T03:24:47;5.50;99.90
54680;DHT22;40578;53.178;5.846;2023-04-25T03:27:13;5.50;99.90
54680;DHT22;40578;53.178;5.846;2023-04-25T03:29:38;5.50;99.90
54680;DHT22;40578;53.178;5.846;2023-04-25T03:32:05;5.50;99.90
54680;DHT22;40578;53.178;5.846;2023-04-25T03:34:31;5.50;99.90
54680;DHT22;40578;53.178;5.846;2023-04-25T03:36:57;5.50;99.90
54680;DHT22;40578;53.178;5.846;2023-04-25T03:39:22;5.40;99.90
54680;DHT22;40578;53.178;5.846;2023-04-25T03:41:48;5.50;99.90
54680;DHT22;40578;53.178;5.846;2023-04-25T03:44:14;5.50;99.90
54680;DHT22;40578;53.178;5.846;2023-04-25T03:46:39;5.50;99.90
54680;DHT22;40578;53.178;5.846;2023-04-25T03:49:05;5.50;99.90
54680;DHT22;40578;53.178;5.846;2023-04-25T03:51:31;5.50;99.90
54680;DHT22;40578;53.178;5.846;2023-04-25T03:53:56;5.50;99.90
54680;DHT22;40578;53.178;5.846;2023-04-25T03:56:22;5.50;99.90
54680;DHT22;40578;53.178;5.846;2023-04-25T03:58:48;5.50;99.90
54680;DHT22;40578;53.178;5.846;2023-04-25T04:01:13;5.40;99.90
54680;DHT22;40578;53.178;5.846;2023-04-25T04:03:39;5.40;99.90
54680;DHT22;40578;53.178;5.846;2023-04-25T04:06:06;5.30;99.90
54680;DHT22;40578;53.178;5.846;2023-04-25T04:08:32;5.30;99.90
54680;DHT22;40578;53.178;5.846;2023-04-25T04:10:58;5.20;99.90
54680;DHT22;40578;53.178;5.846;2023-04-25T04:13:28;5.20;99.90
54680;DHT22;40578;53.178;5.846;2023-04-25T04:15:54;5.20;99.90
54680;DHT22;40578;53.178;5.846;2023-04-25T04:18:20;5.20;99.90
54680;DHT22;40578;53.178;5.846;2023-04-25T04:20:45;5.20;99.90
54680;DHT22;40578;53.178;5.846;2023-04-25T04:23:11;5.20;99.90
54680;DHT22;40578;53.178;5.846;2023-04-25T04:25:37;5.40;99.90
54680;DHT22;40578;53.178;5.846;2023-04-25T04:28:03;5.30;99.90
54680;DHT22;40578;53.178;5.846;2023-04-25T04:30:29;5.30;99.90
54680;DHT22;40578;53.178;5.846;2023-04-25T04:32:55;5.30;99.90
54680;DHT22;40578;53.178;5.846;2023-04-25T04:35:22;6.10;99.90
54680;DHT22;40578;53.178;5.846;2023-04-25T04:37:48;5.40;99.90
54680;DHT22;40578;53.178;5.846;2023-04-25T04:40:14;5.30;99.90
54680;DHT22;40578;53.178;5.846;2023-04-25T04:42:44;5.40;99.90
54680;DHT22;40578;53.178;5.846;2023-04-25T04:45:10;5.40;99.90
54680;DHT22;40578;53.178;5.846;2023-04-25T04:47:37;5.40;99.90
54680;DHT22;40578;53.178;5.846;2023-04-25T04:50:05;5.40;99.90
54680;DHT22;40578;53.178;5.846;2023-04-25T04:52:34;5.40;99.90
54680;DHT22;40578;53.178;5.846;2023-04-25T04:55:00;5.40;99.90
54680;DHT22;40578;53.178;5.846;2023-04-25T04:57:25;5.40;99.90
54680;DHT22;40578;53.178;5.846;2023-04-25T04:59:52;5.40;99.90
54680;DHT22;40578;53.178;5.846;2023-04-25T05:02:17;5.40;99.90
54680;DHT22;40578;53.178;5.846;2023-04-25T05:04:43;5.40;99.90
54680;DHT22;40578;53.178;5.846;2023-04-25T05:07:09;5.50;99.90
54680;DHT22;40578;53.178;5.846;2023-04-25T05:09:35;5.50;99.90
54680;DHT22;40578;53.178;5.846;2023-04-25T05:12:00;5.50;99.90
54680;DHT22;40578;53.178;5.846;2023-04-25T05:14:26;5.50;99.90
54680;DHT22;40578;53.178;5.846;2023-04-25T05:16:52;5.40;99.90
54680;DHT22;40578;53.178;5.846;2023-04-25T05:19:17;5.50;99.90
54680;DHT22;40578;53.178;5.846;2023-04-25T05:21:43;5.40;99.90
54680;DHT22;40578;53.178;5.846;2023-04-25T05:24:09;5.40;99.90
54680;DHT22;40578;53.178;5.846;2023-04-25T05:26:35;5.70;99.90
54680;DHT22;40578;53.178;5.846;2023-04-25T05:29:00;5.50;99.90
54680;DHT22;40578;53.178;5.846;2023-04-25T05:31:26;5.50;99.90
54680;DHT22;40578;53.178;5.846;2023-04-25T05:33:54;5.60;99.90
54680;DHT22;40578;53.178;5.846;2023-04-25T05:36:20;5.80;99.90
54680;DHT22;40578;53.178;5.846;2023-04-25T05:38:46;5.90;99.90
54680;DHT22;40578;53.178;5.846;2023-04-25T05:41:12;5.90;99.90
54680;DHT22;40578;53.178;5.846;2023-04-25T05:43:38;5.90;99.90
54680;DHT22;40578;53.178;5.846;2023-04-25T05:46:03;5.90;99.90
54680;DHT22;40578;53.178;5.846;2023-04-25T05:48:29;5.90;99.90
54680;DHT22;40578;53.178;5.846;2023-04-25T05:50:55;5.80;99.90
54680;DHT22;40578;53.178;5.846;2023-04-25T05:53:21;5.80;99.90
54680;DHT22;40578;53.178;5.846;2023-04-25T05:55:47;5.60;99.90
54680;DHT22;40578;53.178;5.846;2023-04-25T05:58:13;5.50;99.90
54680;DHT22;40578;53.178;5.846;2023-04-25T06:00:38;5.40;99.90
54680;DHT22;40578;53.178;5.846;2023-04-25T06:03:04;5.20;99.90
54680;DHT22;40578;53.178;5.846;2023-04-25T06:05:30;5.10;99.90
54680;DHT22;40578;53.178;5.846;2023-04-25T06:07:55;5.00;99.90
54680;DHT22;40578;53.178;5.846;2023-04-25T06:10:21;5.10;99.90
54680;DHT22;40578;53.178;5.846;2023-04-25T06:12:47;5.00;99.90
54680;DHT22;40578;53.178;5.846;2023-04-25T06:15:13;5.00;99.90
54680;DHT22;40578;53.178;5.846;2023-04-25T06:17:39;5.00;99.90
54680;DHT22;40578;53.178;5.846;2023-04-25T06:20:05;5.00;99.90
54680;DHT22;40578;53.178;5.846;2023-04-25T06:22:31;5.00;99.90
54680;DHT22;40578;53.178;5.846;2023-04-25T06:24:57;5.40;99.90
54680;DHT22;40578;53.178;5.846;2023-04-25T06:27:24;5.30;99.90
54680;DHT22;40578;53.178;5.846;2023-04-25T06:29:50;5.30;99.90
54680;DHT22;40578;53.178;5.846;2023-04-25T06:32:15;5.40;99.90
54680;DHT22;40578;53.178;5.846;2023-04-25T06:34:43;5.60;99.90
54680;DHT22;40578;53.178;5.846;2023-04-25T06:37:09;5.70;99.90
54680;DHT22;40578;53.178;5.846;2023-04-25T06:39:34;6.00;99.90
54680;DHT22;40578;53.178;5.846;2023-04-25T06:42:00;6.00;99.90
54680;DHT22;40578;53.178;5.846;2023-04-25T06:44:25;6.10;99.90
54680;DHT22;40578;53.178;5.846;2023-04-25T06:46:51;6.20;99.90
54680;DHT22;40578;53.178;5.846;2023-04-25T06:49:17;6.00;99.90
54680;DHT22;40578;53.178;5.846;2023-04-25T06:51:44;5.80;99.90
54680;DHT22;40578;53.178;5.846;2023-04-25T06:54:10;5.60;99.90
54680;DHT22;40578;53.178;5.846;2023-04-25T06:56:36;5.50;99.90
54680;DHT22;40578;53.178;5.846;2023-04-25T06:59:03;5.40;99.90
54680;DHT22;40578;53.178;5.846;2023-04-25T07:01:28;5.40;99.90
54680;DHT22;40578;53.178;5.846;2023-04-25T07:03:54;5.50;99.90
54680;DHT22;40578;53.178;5.846;2023-04-25T07:06:20;5.60;99.90
54680;DHT22;40578;53.178;5.846;2023-04-25T07:08:45;5.80;99.90
54680;DHT22;40578;53.178;5.846;2023-04-25T07:11:12;6.00;99.90
54680;DHT22;40578;53.178;5.846;2023-04-25T07:13:37;6.00;99.90
54680;DHT22;40578;53.178;5.846;2023-04-25T07:16:03;6.10;99.90
54680;DHT22;40578;53.178;5.846;2023-04-25T07:18:29;6.20;99.90
54680;DHT22;40578;53.178;5.846;2023-04-25T07:20:55;6.20;99.90
54680;DHT22;40578;53.178;5.846;2023-04-25T07:23:20;7.00;99.90
54680;DHT22;40578;53.178;5.846;2023-04-25T07:25:46;6.30;99.90
54680;DHT22;40578;53.178;5.846;2023-04-25T07:28:12;6.20;99.90
54680;DHT22;40578;53.178;5.846;2023-04-25T07:30:38;6.20;99.90
54680;DHT22;40578;53.178;5.846;2023-04-25T07:33:04;6.10;99.90
54680;DHT22;40578;53.178;5.846;2023-04-25T07:35:30;6.20;99.90
54680;DHT22;40578;53.178;5.846;2023-04-25T07:37:56;6.30;99.90
54680;DHT22;40578;53.178;5.846;2023-04-25T07:40:21;6.40;99.90
54680;DHT22;40578;53.178;5.846;2023-04-25T07:42:47;6.50;99.90
54680;DHT22;40578;53.178;5.846;2023-04-25T07:45:13;6.60;99.90
54680;DHT22;40578;53.178;5.846;2023-04-25T07:47:38;6.80;99.90
54680;DHT22;40578;53.178;5.846;2023-04-25T07:50:05;8.40;99.90
54680;DHT22;40578;53.178;5.846;2023-04-25T07:52:31;7.00;99.90
54680;DHT22;40578;53.178;5.846;2023-04-25T07:54:56;7.60;99.90
54680;DHT22;40578;53.178;5.846;2023-04-25T07:57:23;7.00;99.90
54680;DHT22;40578;53.178;5.846;2023-04-25T07:59:49;6.90;99.90
54680;DHT22;40578;53.178;5.846;2023-04-25T08:02:15;7.00;99.90
54680;DHT22;40578;53.178;5.846;2023-04-25T08:04:41;7.10;99.90
54680;DHT22;40578;53.178;5.846;2023-04-25T08:07:06;7.10;99.90
54680;DHT22;40578;53.178;5.846;2023-04-25T08:09:32;7.20;99.90
54680;DHT22;40578;53.178;5.846;2023-04-25T08:12:01;7.20;99.90
54680;DHT22;40578;53.178;5.846;2023-04-25T08:14:28;7.20;99.90
54680;DHT22;40578;53.178;5.846;2023-04-25T08:16:56;7.20;99.90
54680;DHT22;40578;53.178;5.846;2023-04-25T08:19:22;7.20;99.90
54680;DHT22;40578;53.178;5.846;2023-04-25T08:21:47;7.20;99.90
54680;DHT22;40578;53.178;5.846;2023-04-25T08:24:13;7.10;99.90
54680;DHT22;40578;53.178;5.846;2023-04-25T08:26:38;7.20;99.90
54680;DHT22;40578;53.178;5.846;2023-04-25T08:29:05;7.10;99.90
54680;DHT22;40578;53.178;5.846;2023-04-25T08:31:30;7.10;99.90
54680;DHT22;40578;53.178;5.846;2023-04-25T08:33:56;7.20;99.90
54680;DHT22;40578;53.178;5.846;2023-04-25T08:36:22;7.30;99.90
54680;DHT22;40578;53.178;5.846;2023-04-25T08:38:48;7.40;99.90
54680;DHT22;40578;53.178;5.846;2023-04-25T08:41:14;7.30;99.90
54680;DHT22;40578;53.178;5.846;2023-04-25T08:43:42;7.00;99.90
54680;DHT22;40578;53.178;5.846;2023-04-25T08:46:09;6.80;99.90
54680;DHT22;40578;53.178;5.846;2023-04-25T08:48:35;6.60;99.90
54680;DHT22;40578;53.178;5.846;2023-04-25T08:51:02;6.60;99.90
54680;DHT22;40578;53.178;5.846;2023-04-25T08:53:32;6.70;99.90
54680;DHT22;40578;53.178;5.846;2023-04-25T08:55:59;6.80;99.90
54680;DHT22;40578;53.178;5.846;2023-04-25T08:58:24;6.90;99.90
54680;DHT22;40578;53.178;5.846;2023-04-25T09:00:51;6.90;99.90
54680;DHT22;40578;53.178;5.846;2023-04-25T09:03:17;6.90;99.90
54680;DHT22;40578;53.178;5.846;2023-04-25T09:05:43;7.00;99.90
54680;DHT22;40578;53.178;5.846;2023-04-25T09:08:09;7.10;99.90
54680;DHT22;40578;53.178;5.846;2023-04-25T09:10:35;7.30;99.90
54680;DHT22;40578;53.178;5.846;2023-04-25T09:13:06;7.50;99.90
54680;DHT22;40578;53.178;5.846;2023-04-25T09:15:32;8.80;99.90
54680;DHT22;40578;53.178;5.846;2023-04-25T09:17:59;7.60;99.90
54680;DHT22;40578;53.178;5.846;2023-04-25T09:20:25;7.50;99.90
54680;DHT22;40578;53.178;5.846;2023-04-25T09:23:04;7.50;99.90
54680;DHT22;40578;53.178;5.846;2023-04-25T09:25:37;7.50;99.90
54680;DHT22;40578;53.178;5.846;2023-04-25T09:28:05;9.00;99.90
54680;DHT22;40578;53.178;5.846;2023-04-25T09:30:34;7.60;99.90
54680;DHT22;40578;53.178;5.846;2023-04-25T09:33:10;7.30;99.90
54680;DHT22;40578;53.178;5.846;2023-04-25T09:35:41;7.30;99.90
54680;DHT22;40578;53.178;5.846;2023-04-25T09:38:09;7.30;99.90
54680;DHT22;40578;53.178;5.846;2023-04-25T09:40:39;7.20;99.90
54680;DHT22;40578;53.178;5.846;2023-04-25T09:43:25;7.20;99.90
54680;DHT22;40578;53.178;5.846;2023-04-25T09:45:53;7.20;99.90
54680;DHT22;40578;53.178;5.846;2023-04-25T09:48:20;7.30;99.90
54680;DHT22;40578;53.178;5.846;2023-04-25T09:53:32;7.50;99.90
54680;DHT22;40578;53.178;5.846;2023-04-25T09:56:00;7.50;99.90
54680;DHT22;40578;53.178;5.846;2023-04-25T09:58:25;7.30;99.90
54680;DHT22;40578;53.178;5.846;2023-04-25T10:00:59;7.30;99.90
54680;DHT22;40578;53.178;5.846;2023-04-25T10:03:25;7.80;99.90
54680;DHT22;40578;53.178;5.846;2023-04-25T10:05:52;7.50;99.90
54680;DHT22;40578;53.178;5.846;2023-04-25T10:08:19;7.60;99.90
54680;DHT22;40578;53.178;5.846;2023-04-25T10:10:47;7.60;99.90
54680;DHT22;40578;53.178;5.846;2023-04-25T10:13:14;8.00;99.90
54680;DHT22;40578;53.178;5.846;2023-04-25T10:15:41;7.70;99.90
54680;DHT22;40578;53.178;5.846;2023-04-25T10:18:08;8.60;99.90
54680;DHT22;40578;53.178;5.846;2023-04-25T10:20:34;7.70;99.90
54680;DHT22;40578;53.178;5.846;2023-04-25T10:23:12;7.60;99.90
54680;DHT22;40578;53.178;5.846;2023-04-25T10:25:39;7.60;99.90
54680;DHT22;40578;53.178;5.846;2023-04-25T10:28:06;7.90;99.90
54680;DHT22;40578;53.178;5.846;2023-04-25T10:30:31;8.80;99.90
54680;DHT22;40578;53.178;5.846;2023-04-25T10:32:58;8.50;99.90
54680;DHT22;40578;53.178;5.846;2023-04-25T10:35:29;8.70;99.90
54680;DHT22;40578;53.178;5.846;2023-04-25T10:38:09;8.50;99.90
54680;DHT22;40578;53.178;5.846;2023-04-25T10:40:35;7.90;99.90
54680;DHT22;40578;53.178;5.846;2023-04-25T10:48:50;6.90;99.90
54680;DHT22;40578;53.178;5.846;2023-04-25T10:51:18;6.90;99.90
54680;DHT22;40578;53.178;5.846;2023-04-25T10:53:45;6.70;99.90
54680;DHT22;40578;53.178;5.846;2023-04-25T10:56:19;6.60;99.90
54680;DHT22;40578;53.178;5.846;2023-04-25T10:58:45;6.70;99.90
54680;DHT22;40578;53.178;5.846;2023-04-25T11:01:15;6.90;99.90
54680;DHT22;40578;53.178;5.846;2023-04-25T11:03:44;7.10;99.90
54680;DHT22;40578;53.178;5.846;2023-04-25T11:09:01;7.40;99.90
54680;DHT22;40578;53.178;5.846;2023-04-25T11:11:28;8.00;99.90
54680;DHT22;40578;53.178;5.846;2023-04-25T11:13:54;7.70;99.90
54680;DHT22;40578;53.178;5.846;2023-04-25T11:16:24;7.90;99.90
54680;DHT22;40578;53.178;5.846;2023-04-25T11:18:50;8.00;99.90
54680;DHT22;40578;53.178;5.846;2023-04-25T11:21:16;8.20;99.90
54680;DHT22;40578;53.178;5.846;2023-04-25T11:23:45;8.20;99.90
54680;DHT22;40578;53.178;5.846;2023-04-25T11:26:12;8.40;99.90
54680;DHT22;40578;53.178;5.846;2023-04-25T11:28:38;8.20;99.90
54680;DHT22;40578;53.178;5.846;2023-04-25T11:31:04;7.70;99.90
54680;DHT22;40578;53.178;5.846;2023-04-25T11:33:30;7.30;99.90
54680;DHT22;40578;53.178;5.846;2023-04-25T11:35:55;7.20;99.90
54680;DHT22;40578;53.178;5.846;2023-04-25T11:38:22;7.10;99.90
54680;DHT22;40578;53.178;5.846;2023-04-25T11:40:54;7.20;99.90
54680;DHT22;40578;53.178;5.846;2023-04-25T11:43:23;7.40;99.90
54680;DHT22;40578;53.178;5.846;2023-04-25T11:45:49;7.40;99.90
54680;DHT22;40578;53.178;5.846;2023-04-25T11:48:16;7.40;99.90
54680;DHT22;40578;53.178;5.846;2023-04-25T11:50:42;7.10;99.90
54680;DHT22;40578;53.178;5.846;2023-04-25T11:53:08;6.90;99.90
54680;DHT22;40578;53.178;5.846;2023-04-25T11:55:34;7.00;99.90
54680;DHT22;40578;53.178;5.846;2023-04-25T11:58:00;7.10;99.90
54680;DHT22;40578;53.178;5.846;2023-04-25T12:00:26;7.30;99.90
54680;DHT22;40578;53.178;5.846;2023-04-25T12:02:53;7.60;99.90
54680;DHT22;40578;53.178;5.846;2023-04-25T12:05:23;8.00;99.90
54680;DHT22;40578;53.178;5.846;2023-04-25T12:07:49;8.20;99.90
54680;DHT22;40578;53.178;5.846;2023-04-25T12:10:16;8.20;99.90
54680;DHT22;40578;53.178;5.846;2023-04-25T12:12:47;8.00;99.90
54680;DHT22;40578;53.178;5.846;2023-04-25T12:17:46;8.20;99.90
54680;DHT22;40578;53.178;5.846;2023-04-25T12:20:17;9.00;99.90
54680;DHT22;40578;53.178;5.846;2023-04-25T12:22:44;8.40;99.90
54680;DHT22;40578;53.178;5.846;2023-04-25T12:25:43;8.60;99.90
54680;DHT22;40578;53.178;5.846;2023-04-25T12:31:07;8.80;99.90
54680;DHT22;40578;53.178;5.846;2023-04-25T12:33:33;8.90;99.90
54680;DHT22;40578;53.178;5.846;2023-04-25T12:35:59;9.00;99.90
54680;DHT22;40578;53.178;5.846;2023-04-25T12:38:30;9.20;99.90
54680;DHT22;40578;53.178;5.846;2023-04-25T12:40:59;9.10;99.90
54680;DHT22;40578;53.178;5.846;2023-04-25T12:43:25;9.10;99.90
54680;DHT22;40578;53.178;5.846;2023-04-25T12:45:52;8.90;99.90
54680;DHT22;40578;53.178;5.846;2023-04-25T12:48:18;8.50;99.90
54680;DHT22;40578;53.178;5.846;2023-04-25T12:50:44;8.40;99.90
54680;DHT22;40578;53.178;5.846;2023-04-25T12:53:10;8.10;99.90
54680;DHT22;40578;53.178;5.846;2023-04-25T12:55:37;8.20;99.90
54680;DHT22;40578;53.178;5.846;2023-04-25T12:58:02;8.50;99.90
54680;DHT22;40578;53.178;5.846;2023-04-25T13:00:29;8.60;99.90
54680;DHT22;40578;53.178;5.846;2023-04-25T13:02:55;9.00;99.90
54680;DHT22;40578;53.178;5.846;2023-04-25T13:05:21;8.80;99.90
54680;DHT22;40578;53.178;5.846;2023-04-25T13:07:46;8.70;99.90
54680;DHT22;40578;53.178;5.846;2023-04-25T13:10:12;10.30;99.90
54680;DHT22;40578;53.178;5.846;2023-04-25T13:12:37;8.70;99.90
54680;DHT22;40578;53.178;5.846;2023-04-25T13:15:03;8.70;99.90
54680;DHT22;40578;53.178;5.846;2023-04-25T13:17:29;8.60;99.90
54680;DHT22;40578;53.178;5.846;2023-04-25T13:19:55;8.80;99.90
54680;DHT22;40578;53.178;5.846;2023-04-25T13:22:21;9.00;99.90
54680;DHT22;40578;53.178;5.846;2023-04-25T13:24:46;9.00;99.90
54680;DHT22;40578;53.178;5.846;2023-04-25T13:27:13;9.20;99.90
54680;DHT22;40578;53.178;5.846;2023-04-25T13:29:38;9.30;99.90
54680;DHT22;40578;53.178;5.846;2023-04-25T13:32:06;9.50;99.90
54680;DHT22;40578;53.178;5.846;2023-04-25T13:34:32;9.50;99.90
54680;DHT22;40578;53.178;5.846;2023-04-25T13:36:58;9.40;99.90
54680;DHT22;40578;53.178;5.846;2023-04-25T13:39:24;9.50;99.90
54680;DHT22;40578;53.178;5.846;2023-04-25T13:41:49;9.50;99.90
54680;DHT22;40578;53.178;5.846;2023-04-25T13:44:15;9.80;99.90
54680;DHT22;40578;53.178;5.846;2023-04-25T13:46:41;10.00;99.90
54680;DHT22;40578;53.178;5.846;2023-04-25T13:49:07;10.10;99.90
54680;DHT22;40578;53.178;5.846;2023-04-25T13:51:32;9.70;99.90
54680;DHT22;40578;53.178;5.846;2023-04-25T13:53:58;9.40;99.90
54680;DHT22;40578;53.178;5.846;2023-04-25T13:56:24;9.00;99.90
54680;DHT22;40578;53.178;5.846;2023-04-25T13:58:50;8.90;99.90
54680;DHT22;40578;53.178;5.846;2023-04-25T14:01:17;8.50;99.90
54680;DHT22;40578;53.178;5.846;2023-04-25T14:03:43;8.30;99.90
54680;DHT22;40578;53.178;5.846;2023-04-25T14:06:08;8.00;99.90
54680;DHT22;40578;53.178;5.846;2023-04-25T14:08:34;7.70;99.90
54680;DHT22;40578;53.178;5.846;2023-04-25T14:11:00;7.70;99.90
54680;DHT22;40578;53.178;5.846;2023-04-25T14:13:26;7.80;99.90
54680;DHT22;40578;53.178;5.846;2023-04-25T14:15:52;8.20;99.90
54680;DHT22;40578;53.178;5.846;2023-04-25T14:18:18;8.40;99.90
54680;DHT22;40578;53.178;5.846;2023-04-25T14:20:44;8.50;99.90
54680;DHT22;40578;53.178;5.846;2023-04-25T14:23:10;8.70;99.90
54680;DHT22;40578;53.178;5.846;2023-04-25T14:25:36;8.80;99.90
54680;DHT22;40578;53.178;5.846;2023-04-25T14:28:03;8.70;99.90
54680;DHT22;40578;53.178;5.846;2023-04-25T14:30:29;8.70;99.90
54680;DHT22;40578;53.178;5.846;2023-04-25T14:32:54;8.70;99.90
54680;DHT22;40578;53.178;5.846;2023-04-25T14:35:20;8.80;99.90
54680;DHT22;40578;53.178;5.846;2023-04-25T14:37:46;8.80;99.90
54680;DHT22;40578;53.178;5.846;2023-04-25T14:40:13;8.60;99.90
54680;DHT22;40578;53.178;5.846;2023-04-25T14:42:40;8.50;99.90
54680;DHT22;40578;53.178;5.846;2023-04-25T14:45:07;8.20;99.90
54680;DHT22;40578;53.178;5.846;2023-04-25T14:47:34;8.30;99.90
54680;DHT22;40578;53.178;5.846;2023-04-25T14:50:00;8.30;99.90
54680;DHT22;40578;53.178;5.846;2023-04-25T14:52:27;8.30;99.90
54680;DHT22;40578;53.178;5.846;2023-04-25T14:54:52;8.40;99.90
54680;DHT22;40578;53.178;5.846;2023-04-25T14:57:18;8.50;99.90
54680;DHT22;40578;53.178;5.846;2023-04-25T14:59:44;8.70;99.90
54680;DHT22;40578;53.178;5.846;2023-04-25T15:02:10;8.60;99.90
54680;DHT22;40578;53.178;5.846;2023-04-25T15:04:36;8.50;99.90
54680;DHT22;40578;53.178;5.846;2023-04-25T15:07:02;8.60;99.90
54680;DHT22;40578;53.178;5.846;2023-04-25T15:09:28;8.10;99.90
54680;DHT22;40578;53.178;5.846;2023-04-25T15:11:53;8.20;99.90
54680;DHT22;40578;53.178;5.846;2023-04-25T15:14:19;8.30;99.90
54680;DHT22;40578;53.178;5.846;2023-04-25T15:16:45;8.50;99.90
54680;DHT22;40578;53.178;5.846;2023-04-25T15:19:10;8.50;99.90
54680;DHT22;40578;53.178;5.846;2023-04-25T15:21:36;8.20;99.90
54680;DHT22;40578;53.178;5.846;2023-04-25T15:24:02;8.00;99.90
54680;DHT22;40578;53.178;5.846;2023-04-25T15:26:28;7.90;99.90
54680;DHT22;40578;53.178;5.846;2023-04-25T15:28:53;7.80;99.90
54680;DHT22;40578;53.178;5.846;2023-04-25T15:31:19;7.80;99.90
54680;DHT22;40578;53.178;5.846;2023-04-25T15:33:45;7.60;99.90
54680;DHT22;40578;53.178;5.846;2023-04-25T15:36:11;7.30;99.90
54680;DHT22;40578;53.178;5.846;2023-04-25T15:38:36;7.00;99.90
54680;DHT22;40578;53.178;5.846;2023-04-25T15:41:02;7.00;99.90
54680;DHT22;40578;53.178;5.846;2023-04-25T15:43:28;6.80;99.90
54680;DHT22;40578;53.178;5.846;2023-04-25T15:45:54;6.80;99.90
54680;DHT22;40578;53.178;5.846;2023-04-25T15:48:20;6.90;99.90
54680;DHT22;40578;53.178;5.846;2023-04-25T15:50:46;7.00;99.90
54680;DHT22;40578;53.178;5.846;2023-04-25T15:53:11;7.20;99.90
54680;DHT22;40578;53.178;5.846;2023-04-25T15:55:38;7.30;99.90
54680;DHT22;40578;53.178;5.846;2023-04-25T15:58:03;7.60;99.90